createdAt,value
2022-10-19T00:01:07.058Z,85.70
2022-10-19T00:03:35.629Z,85.80
2022-10-19T00:06:18.160Z,85.90
2022-10-19T00:08:46.420Z,86.00
2022-10-19T00:11:13.922Z,86.00
2022-10-19T00:13:41.140Z,86.10
2022-10-19T00:16:14.597Z,86.10
2022-10-19T00:18:45.528Z,86.20
2022-10-19T00:21:18.984Z,86.20
2022-10-19T00:23:47.082Z,86.00
2022-10-19T00:26:15.160Z,85.80
2022-10-19T00:28:44.220Z,85.90
2022-10-19T00:31:17.323Z,85.90
2022-10-19T00:33:47.008Z,86.00
2022-10-19T00:36:35.451Z,86.10
2022-10-19T00:39:05.081Z,86.30
2022-10-19T00:41:33.978Z,86.30
2022-10-19T00:44:08.126Z,86.30
2022-10-19T00:46:39.040Z,86.50
2022-10-19T00:49:15.210Z,86.60
2022-10-19T00:51:47.122Z,86.70
2022-10-19T00:54:17.564Z,86.60
2022-10-19T00:56:48.383Z,86.60
2022-10-19T00:59:18.802Z,86.70
2022-10-19T01:01:46.947Z,86.90
2022-10-19T01:04:14.799Z,86.90
2022-10-19T01:06:42.832Z,86.80
2022-10-19T01:09:10.008Z,87.10
2022-10-19T01:11:45.892Z,87.30
2022-10-19T01:14:31.300Z,87.60
2022-10-19T01:17:28.475Z,87.70
2022-10-19T01:20:26.713Z,87.80
2022-10-19T01:23:24.037Z,87.90
2022-10-19T01:26:06.078Z,87.90
2022-10-19T01:29:10.529Z,87.80
2022-10-19T01:32:19.937Z,88.00
2022-10-19T01:35:06.501Z,87.90
2022-10-19T01:37:56.035Z,87.80
2022-10-19T01:40:23.073Z,87.90
2022-10-19T01:43:07.825Z,87.80
2022-10-19T01:45:45.498Z,87.70
2022-10-19T01:48:21.496Z,87.70
2022-10-19T01:51:05.037Z,87.70
2022-10-19T01:53:39.480Z,87.70
2022-10-19T01:56:08.579Z,87.60
2022-10-19T01:58:38.827Z,87.70
2022-10-19T02:01:09.214Z,87.90
2022-10-19T02:03:38.109Z,88.00
2022-10-19T02:06:08.688Z,88.10
2022-10-19T02:08:43.983Z,88.10
2022-10-19T02:11:11.193Z,88.00
2022-10-19T02:13:40.049Z,88.10
2022-10-19T02:16:11.090Z,88.20
2022-10-19T02:18:42.592Z,88.20
2022-10-19T02:21:10.599Z,88.90
2022-10-19T02:23:37.640Z,88.30
2022-10-19T02:26:05.063Z,88.30
2022-10-19T02:28:32.448Z,88.40
2022-10-19T02:31:00.277Z,88.40
2022-10-19T02:33:28.875Z,88.60
2022-10-19T02:35:57.092Z,88.80
2022-10-19T02:38:25.025Z,88.90
2022-10-19T02:41:06.521Z,89.00
2022-10-19T02:43:37.652Z,89.10
2022-10-19T02:46:27.834Z,89.10
2022-10-19T02:48:57.295Z,89.20
2022-10-19T02:51:36.417Z,89.20
2022-10-19T02:54:05.603Z,89.20
2022-10-19T02:56:34.188Z,89.20
2022-10-19T02:59:02.193Z,89.40
2022-10-19T03:01:29.180Z,89.60
2022-10-19T03:03:56.195Z,89.80
2022-10-19T03:06:23.190Z,89.90
2022-10-19T03:08:50.779Z,90.00
2022-10-19T03:11:17.723Z,90.00
2022-10-19T03:13:44.782Z,89.90
2022-10-19T03:16:13.408Z,89.90
2022-10-19T03:18:40.881Z,89.80
2022-10-19T03:21:13.097Z,89.50
2022-10-19T03:23:40.980Z,89.30
2022-10-19T03:26:11.509Z,89.10
2022-10-19T03:28:39.532Z,89.00
2022-10-19T03:31:06.700Z,89.10
2022-10-19T03:33:33.698Z,89.20
2022-10-19T03:36:37.212Z,89.30
2022-10-19T03:39:09.061Z,89.70
2022-10-19T03:41:37.468Z,89.70
2022-10-19T03:44:06.210Z,89.90
2022-10-19T03:46:34.109Z,90.00
2022-10-19T03:49:01.194Z,90.00
2022-10-19T03:51:29.832Z,90.10
2022-10-19T03:54:06.684Z,90.10
2022-10-19T03:56:35.006Z,90.10
2022-10-19T03:59:04.144Z,90.10
2022-10-19T04:01:36.815Z,90.10
2022-10-19T04:04:07.013Z,90.10
2022-10-19T04:06:36.197Z,90.20
2022-10-19T04:09:05.265Z,90.20
2022-10-19T04:11:33.881Z,90.30
2022-10-19T04:14:01.646Z,90.30
2022-10-19T04:16:30.595Z,90.40
2022-10-19T04:18:58.346Z,90.40
2022-10-19T04:21:25.319Z,90.40
2022-10-19T04:23:54.096Z,90.40
2022-10-19T04:26:21.114Z,90.50
2022-10-19T04:28:48.558Z,90.50
2022-10-19T04:31:15.651Z,90.60
2022-10-19T04:33:42.796Z,90.60
2022-10-19T04:36:11.910Z,90.70
2022-10-19T04:38:39.492Z,90.70
2022-10-19T04:41:13.238Z,90.80
2022-10-19T04:43:40.517Z,90.80
2022-10-19T04:46:10.680Z,90.80
2022-10-19T04:48:38.925Z,90.70
2022-10-19T04:51:07.035Z,90.70
2022-10-19T04:53:34.828Z,90.70
2022-10-19T04:56:05.945Z,90.60
2022-10-19T04:58:32.928Z,90.50
2022-10-19T05:01:00.038Z,90.50
2022-10-19T05:03:27.084Z,90.50
2022-10-19T05:05:54.045Z,90.60
2022-10-19T05:08:21.016Z,90.70
2022-10-19T05:10:47.970Z,90.70
2022-10-19T05:13:15.062Z,90.70
2022-10-19T05:15:42.227Z,90.60
2022-10-19T05:18:09.268Z,90.50
2022-10-19T05:20:36.251Z,90.60
2022-10-19T05:23:06.373Z,90.70
2022-10-19T05:25:34.399Z,90.80
2022-10-19T05:28:01.348Z,90.90
2022-10-19T05:30:28.310Z,91.00
2022-10-19T05:32:55.263Z,91.00
2022-10-19T05:35:22.684Z,91.00
2022-10-19T05:37:55.267Z,91.00
2022-10-19T05:40:22.223Z,91.00
2022-10-19T05:42:49.218Z,91.00
2022-10-19T05:45:16.222Z,91.00
2022-10-19T05:47:43.217Z,90.90
2022-10-19T05:50:10.188Z,90.90
2022-10-19T05:52:37.158Z,91.00
2022-10-19T05:55:04.534Z,91.00
2022-10-19T05:57:33.180Z,91.10
2022-10-19T06:00:00.490Z,91.20
2022-10-19T06:02:27.697Z,91.20
2022-10-19T06:04:54.796Z,91.20
2022-10-19T06:07:21.779Z,91.10
2022-10-19T06:09:48.759Z,91.20
2022-10-19T06:12:16.394Z,91.10
2022-10-19T06:14:43.596Z,91.10
2022-10-19T06:17:10.865Z,91.10
2022-10-19T06:19:38.003Z,91.10
2022-10-19T06:22:05.018Z,91.10
2022-10-19T06:24:32.005Z,91.10
2022-10-19T06:26:59.185Z,91.10
2022-10-19T06:29:26.373Z,91.10
2022-10-19T06:31:54.563Z,91.10
2022-10-19T06:34:21.645Z,91.00
2022-10-19T06:36:48.667Z,91.00
2022-10-19T06:39:15.681Z,91.00
2022-10-19T06:41:42.620Z,91.00
2022-10-19T06:44:19.196Z,91.00
2022-10-19T06:46:46.193Z,90.90
2022-10-19T06:49:14.217Z,90.90
2022-10-19T06:51:41.215Z,91.00
2022-10-19T06:54:09.145Z,90.90
2022-10-19T06:56:36.521Z,90.70
2022-10-19T06:59:03.842Z,90.60
2022-10-19T07:01:30.939Z,90.60
2022-10-19T07:03:57.970Z,90.40
2022-10-19T07:06:27.888Z,90.20
2022-10-19T07:08:54.900Z,89.70
2022-10-19T07:11:22.675Z,89.20
2022-10-19T07:13:50.440Z,88.60
2022-10-19T07:16:21.120Z,88.20
2022-10-19T07:18:50.233Z,87.60
2022-10-19T07:21:18.223Z,87.50
2022-10-19T07:23:47.418Z,87.20
2022-10-19T07:26:21.367Z,87.10
2022-10-19T07:28:49.396Z,86.70
2022-10-19T07:31:20.952Z,86.50
2022-10-19T07:33:53.496Z,86.30
2022-10-19T07:36:20.847Z,86.40
2022-10-19T07:38:47.815Z,86.60
2022-10-19T07:41:17.371Z,86.50
2022-10-19T07:43:45.571Z,86.20
2022-10-19T07:46:15.157Z,85.80
2022-10-19T07:48:42.924Z,85.00
2022-10-19T07:51:11.775Z,84.60
2022-10-19T07:53:39.625Z,84.60
2022-10-19T07:56:09.801Z,83.70
2022-10-19T07:58:37.762Z,83.70
2022-10-19T08:01:16.382Z,83.70
2022-10-19T08:04:31.803Z,82.80
2022-10-19T08:06:31.659Z,82.80
2022-10-19T08:08:58.799Z,82.90
2022-10-19T08:11:32.613Z,82.80
2022-10-19T08:14:00.060Z,82.60
2022-10-19T08:16:40.504Z,82.30
2022-10-19T08:19:16.623Z,81.80
2022-10-19T08:21:45.509Z,81.30
2022-10-19T08:24:14.856Z,80.00
2022-10-19T08:26:42.438Z,79.80
2022-10-19T08:29:17.789Z,79.10
2022-10-19T08:31:46.603Z,79.30
2022-10-19T08:34:14.290Z,79.40
2022-10-19T08:39:14.504Z,78.40
2022-10-19T08:44:35.038Z,77.90
2022-10-19T08:47:19.756Z,77.10
2022-10-19T08:49:49.595Z,76.50
2022-10-19T08:52:24.214Z,76.10
2022-10-19T08:54:53.538Z,75.50
2022-10-19T08:57:35.893Z,74.80
2022-10-19T09:00:07.936Z,74.70
2022-10-19T09:02:55.867Z,74.40
2022-10-19T09:05:48.158Z,74.30
2022-10-19T09:08:17.846Z,74.20
2022-10-19T09:10:49.175Z,74.20
2022-10-19T09:13:41.700Z,73.90
2022-10-19T09:16:21.443Z,73.40
2022-10-19T09:18:49.461Z,73.00
2022-10-19T09:21:30.909Z,72.50
2022-10-19T09:24:07.285Z,72.20
2022-10-19T09:26:42.903Z,71.80
2022-10-19T09:29:34.717Z,71.40
2022-10-19T09:32:05.345Z,70.80
2022-10-19T09:34:35.827Z,70.80
2022-10-19T09:37:03.045Z,70.50
2022-10-19T09:39:31.079Z,70.30
2022-10-19T09:42:05.128Z,70.00
2022-10-19T09:44:32.879Z,69.50
2022-10-19T09:47:30.811Z,69.20
2022-10-19T09:50:21.314Z,68.80
2022-10-19T09:53:02.789Z,68.20
2022-10-19T09:55:44.163Z,68.00
2022-10-19T09:58:14.127Z,67.70
2022-10-19T10:00:55.717Z,66.90
2022-10-19T10:03:31.334Z,66.80
2022-10-19T10:06:14.835Z,67.10
2022-10-19T10:08:58.047Z,67.20
2022-10-19T10:11:32.079Z,66.80
2022-10-19T10:14:07.532Z,66.60
2022-10-19T10:16:37.091Z,66.10
2022-10-19T10:19:07.237Z,66.10
2022-10-19T10:21:55.794Z,66.40
2022-10-19T10:24:25.374Z,66.00
2022-10-19T10:26:54.097Z,65.70
2022-10-19T10:29:36.282Z,65.40
2022-10-19T10:32:16.385Z,65.30
2022-10-19T10:34:58.563Z,65.00
2022-10-19T10:37:44.679Z,63.80
2022-10-19T10:40:23.790Z,63.80
2022-10-19T10:42:53.600Z,63.60
2022-10-19T10:45:48.985Z,63.20
2022-10-19T10:48:54.303Z,63.10
2022-10-19T10:51:27.067Z,63.10
2022-10-19T10:54:16.023Z,63.10
2022-10-19T10:56:45.083Z,62.70
2022-10-19T10:59:17.803Z,62.30
2022-10-19T11:02:02.088Z,62.10
2022-10-19T11:04:35.494Z,61.30
2022-10-19T11:07:17.190Z,61.70
2022-10-19T11:09:51.662Z,61.10
2022-10-19T11:12:29.523Z,61.00
2022-10-19T11:15:09.097Z,61.30
2022-10-19T11:17:39.980Z,60.90
2022-10-19T11:20:14.901Z,59.80
2022-10-19T11:22:57.934Z,59.80
2022-10-19T11:25:43.732Z,59.80
2022-10-19T11:28:31.757Z,59.40
2022-10-19T11:31:47.399Z,59.30
2022-10-19T11:34:46.373Z,59.50
2022-10-19T11:37:19.457Z,59.50
2022-10-19T11:39:55.088Z,58.60
2022-10-19T11:42:55.247Z,58.80
2022-10-19T11:45:36.980Z,58.60
2022-10-19T11:48:09.842Z,58.70
2022-10-19T11:50:54.395Z,58.20
2022-10-19T11:53:34.540Z,57.70
2022-10-19T11:56:35.004Z,57.10
2022-10-19T11:59:17.916Z,57.60
2022-10-19T12:01:51.610Z,57.70
2022-10-19T12:04:37.529Z,57.80
2022-10-19T12:07:40.335Z,57.70
2022-10-19T12:10:46.015Z,57.20
2022-10-19T12:13:16.937Z,57.20
2022-10-19T12:15:53.924Z,57.50
2022-10-19T12:18:44.361Z,57.70
2022-10-19T12:21:37.593Z,56.90
2022-10-19T12:24:12.690Z,56.20
2022-10-19T12:26:41.354Z,56.80
2022-10-19T12:29:16.984Z,56.30
2022-10-19T12:31:44.702Z,56.40
2022-10-19T12:34:37.752Z,56.60
2022-10-19T12:37:22.860Z,56.90
2022-10-19T12:39:57.215Z,56.40
2022-10-19T12:42:33.193Z,55.80
2022-10-19T12:45:25.366Z,55.90
2022-10-19T12:48:13.178Z,56.00
2022-10-19T12:50:50.214Z,55.20
2022-10-19T12:53:38.204Z,55.40
2022-10-19T12:56:25.590Z,55.10
2022-10-19T12:59:01.602Z,54.70
2022-10-19T13:01:42.187Z,55.10
2022-10-19T13:04:09.328Z,55.30
2022-10-19T13:07:01.952Z,55.10
2022-10-19T13:09:34.198Z,55.00
2022-10-19T13:12:21.283Z,54.80
2022-10-19T13:14:56.568Z,55.00
2022-10-19T13:17:43.763Z,55.20
2022-10-19T13:20:13.817Z,55.70
2022-10-19T13:22:46.200Z,56.00
2022-10-19T13:25:23.834Z,56.20
2022-10-19T13:28:02.184Z,56.00
2022-10-19T13:30:38.786Z,56.20
2022-10-19T13:33:31.414Z,56.10
2022-10-19T13:35:58.764Z,55.80
2022-10-19T13:38:29.838Z,55.40
2022-10-19T13:41:18.232Z,55.60
2022-10-19T13:44:05.309Z,55.80
2022-10-19T13:46:32.250Z,56.00
2022-10-19T13:49:05.598Z,55.70
2022-10-19T13:52:00.196Z,55.60
2022-10-19T13:55:08.322Z,55.80
2022-10-19T13:58:03.104Z,55.80
2022-10-19T14:00:46.893Z,56.00
2022-10-19T14:03:23.837Z,56.00
2022-10-19T14:06:27.558Z,55.90
2022-10-19T14:09:18.812Z,55.90
2022-10-19T14:11:49.916Z,56.20
2022-10-19T14:14:25.017Z,56.40
2022-10-19T14:17:04.013Z,56.30
2022-10-19T14:19:41.151Z,55.90
2022-10-19T14:22:36.249Z,55.90
2022-10-19T14:25:15.175Z,55.40
2022-10-19T14:27:42.444Z,55.60
2022-10-19T14:30:27.496Z,55.70
2022-10-19T14:32:59.411Z,55.50
2022-10-19T14:35:35.582Z,55.30
2022-10-19T14:38:08.658Z,55.60
2022-10-19T14:40:40.252Z,56.20
2022-10-19T14:43:25.984Z,56.60
2022-10-19T14:46:08.217Z,56.80
2022-10-19T14:48:37.716Z,56.90
2022-10-19T14:51:21.780Z,56.80
2022-10-19T14:54:00.532Z,57.00
2022-10-19T14:56:46.290Z,57.20
2022-10-19T14:59:47.152Z,57.40
2022-10-19T15:02:38.661Z,57.40
2022-10-19T15:05:14.533Z,57.90
2022-10-19T15:07:43.233Z,57.80
2022-10-19T15:10:23.879Z,58.00
2022-10-19T15:12:52.684Z,58.10
2022-10-19T15:15:28.782Z,58.10
2022-10-19T15:18:01.831Z,58.40
2022-10-19T15:20:43.936Z,58.40
2022-10-19T15:23:44.444Z,58.70
2022-10-19T15:26:26.458Z,58.70
2022-10-19T15:28:55.202Z,58.90
2022-10-19T15:31:26.737Z,59.10
2022-10-19T15:34:01.817Z,59.30
2022-10-19T15:36:30.739Z,59.60
2022-10-19T15:39:32.996Z,59.80
2022-10-19T15:42:42.044Z,60.20
2022-10-19T15:45:28.032Z,60.50
2022-10-19T15:48:10.337Z,60.70
2022-10-19T15:50:48.347Z,60.90
2022-10-19T15:53:16.317Z,61.20
2022-10-19T15:55:43.249Z,61.20
2022-10-19T15:58:14.293Z,61.40
2022-10-19T16:00:42.012Z,61.60
2022-10-19T16:03:09.276Z,61.60
2022-10-19T16:05:36.744Z,61.70
2022-10-19T16:08:07.814Z,61.70
2022-10-19T16:10:37.151Z,62.00
2022-10-19T16:13:04.130Z,62.20
2022-10-19T16:15:31.101Z,62.60
2022-10-19T16:18:01.490Z,62.90
2022-10-19T16:20:30.231Z,63.30
2022-10-19T16:22:58.161Z,63.60
2022-10-19T16:25:25.454Z,63.90
2022-10-19T16:27:52.482Z,64.20
2022-10-19T16:30:21.861Z,64.40
2022-10-19T16:32:49.768Z,64.60
2022-10-19T16:35:16.830Z,64.80
2022-10-19T16:37:43.816Z,65.00
2022-10-19T16:40:11.061Z,65.20
2022-10-19T16:42:38.481Z,65.50
2022-10-19T16:45:05.982Z,65.90
2022-10-19T16:47:32.963Z,66.10
2022-10-19T16:50:01.744Z,66.20
2022-10-19T16:52:31.439Z,66.40
2022-10-19T16:54:59.021Z,66.60
2022-10-19T16:57:26.046Z,66.80
2022-10-19T17:02:26.200Z,67.60
2022-10-19T17:04:53.183Z,67.80
2022-10-19T17:07:20.244Z,68.10
2022-10-19T17:09:49.722Z,68.60
2022-10-19T17:12:19.351Z,68.80
2022-10-19T17:14:46.325Z,69.00
2022-10-19T17:17:13.416Z,69.20
2022-10-19T17:19:40.531Z,69.40
2022-10-19T17:22:07.957Z,69.60
2022-10-19T17:24:34.972Z,69.80
2022-10-19T17:27:05.398Z,69.90
2022-10-19T17:29:32.506Z,70.00
2022-10-19T17:31:59.790Z,70.00
2022-10-19T17:34:27.463Z,70.30
2022-10-19T17:36:54.898Z,70.50
2022-10-19T17:39:29.050Z,70.60
2022-10-19T17:42:01.429Z,70.80
2022-10-19T17:44:30.641Z,70.90
2022-10-19T17:46:57.947Z,71.20
2022-10-19T17:49:24.945Z,71.20
2022-10-19T17:51:53.300Z,71.30
2022-10-19T17:54:20.632Z,71.60
2022-10-19T17:56:48.180Z,71.80
2022-10-19T17:59:15.230Z,72.00
2022-10-19T18:01:42.309Z,72.10
2022-10-19T18:04:09.351Z,72.40
2022-10-19T18:06:38.106Z,72.40
2022-10-19T18:09:08.183Z,72.70
2022-10-19T18:11:39.587Z,72.70
2022-10-19T18:14:09.208Z,72.90
2022-10-19T18:16:40.599Z,73.10
2022-10-19T18:19:08.841Z,73.40
2022-10-19T18:21:41.381Z,73.60
2022-10-19T18:24:15.106Z,73.90
2022-10-19T18:26:43.032Z,74.20
2022-10-19T18:29:13.536Z,74.40
2022-10-19T18:31:41.293Z,74.60
2022-10-19T18:34:12.371Z,74.60
2022-10-19T18:36:39.484Z,74.70
2022-10-19T18:39:07.844Z,74.80
2022-10-19T18:41:34.909Z,74.80
2022-10-19T18:44:05.111Z,74.80
2022-10-19T18:46:34.404Z,74.80
2022-10-19T18:49:01.846Z,74.80
2022-10-19T18:51:29.175Z,74.80
2022-10-19T18:53:56.206Z,74.70
2022-10-19T18:56:23.905Z,74.40
2022-10-19T18:58:51.384Z,74.00
2022-10-19T19:01:24.240Z,73.80
2022-10-19T19:03:53.335Z,74.10
2022-10-19T19:06:23.496Z,74.20
2022-10-19T19:08:51.202Z,74.50
2022-10-19T19:11:19.464Z,74.60
2022-10-19T19:13:58.111Z,74.70
2022-10-19T19:16:26.032Z,74.80
2022-10-19T19:18:53.862Z,74.80
2022-10-19T19:21:24.177Z,75.00
2022-10-19T19:23:52.999Z,75.30
2022-10-19T19:26:24.650Z,75.60
2022-10-19T19:28:52.014Z,75.70
2022-10-19T19:31:19.498Z,75.80
2022-10-19T19:33:48.270Z,75.90
2022-10-19T19:36:17.859Z,76.00
2022-10-19T19:38:45.392Z,76.20
2022-10-19T19:41:14.356Z,76.20
2022-10-19T19:43:42.556Z,76.30
2022-10-19T19:46:13.513Z,76.40
2022-10-19T19:48:42.451Z,76.50
2022-10-19T19:51:12.118Z,76.60
2022-10-19T19:53:39.372Z,76.70
2022-10-19T19:56:08.183Z,76.80
2022-10-19T19:58:35.578Z,76.80
2022-10-19T20:01:29.284Z,77.00
2022-10-19T20:03:59.182Z,77.10
2022-10-19T20:06:26.427Z,77.00
2022-10-19T20:08:55.278Z,77.10
2022-10-19T20:11:23.889Z,77.20
2022-10-19T20:13:51.410Z,77.30
2022-10-19T20:16:28.170Z,77.30
2022-10-19T20:19:05.329Z,77.40
2022-10-19T20:21:33.654Z,77.50
2022-10-19T20:24:01.107Z,77.50
2022-10-19T20:26:28.798Z,77.50
2022-10-19T20:28:56.292Z,77.50
2022-10-19T20:31:24.160Z,77.60
2022-10-19T20:33:51.271Z,77.70
2022-10-19T20:36:24.083Z,77.60
2022-10-19T20:38:56.726Z,77.80
2022-10-19T20:41:25.984Z,77.90
2022-10-19T20:43:56.497Z,77.90
2022-10-19T20:46:29.402Z,78.10
2022-10-19T20:49:00.280Z,78.50
2022-10-19T20:51:32.950Z,78.60
2022-10-19T20:54:01.994Z,78.60
2022-10-19T20:56:32.178Z,79.00
2022-10-19T20:59:07.642Z,79.20
2022-10-19T21:01:37.065Z,79.40
2022-10-19T21:04:06.247Z,79.50
2022-10-19T21:06:37.543Z,79.80
2022-10-19T21:09:04.895Z,80.00
2022-10-19T21:11:34.766Z,80.20
2022-10-19T21:14:04.439Z,80.20
2022-10-19T21:16:34.044Z,80.30
2022-10-19T21:19:22.164Z,80.30
2022-10-19T21:21:52.829Z,80.20
2022-10-19T21:24:29.572Z,80.10
2022-10-19T21:26:56.499Z,80.10
2022-10-19T21:29:23.484Z,80.10
2022-10-19T21:31:52.953Z,80.30
2022-10-19T21:34:25.245Z,80.50
2022-10-19T21:36:52.626Z,80.50
2022-10-19T21:39:19.904Z,80.40
2022-10-19T21:41:47.821Z,80.40
2022-10-19T21:44:16.451Z,80.80
2022-10-19T21:46:44.505Z,80.80
2022-10-19T21:49:12.395Z,81.00
2022-10-19T21:51:44.062Z,81.00
2022-10-19T21:54:16.934Z,81.00
2022-10-19T21:56:44.981Z,81.10
2022-10-19T21:59:12.999Z,81.30
2022-10-19T22:01:41.595Z,81.70
2022-10-19T22:04:12.821Z,81.90
2022-10-19T22:06:40.676Z,82.10
2022-10-19T22:09:09.941Z,82.10
2022-10-19T22:11:37.055Z,82.00
2022-10-19T22:14:04.673Z,82.10
2022-10-19T22:16:35.127Z,82.10
2022-10-19T22:19:02.624Z,81.90
2022-10-19T22:21:31.989Z,81.80
2022-10-19T22:24:04.407Z,82.10
2022-10-19T22:26:38.558Z,82.60
2022-10-19T22:29:06.959Z,82.80
2022-10-19T22:31:34.842Z,82.60
2022-10-19T22:34:04.582Z,82.50
2022-10-19T22:36:31.823Z,82.30
2022-10-19T22:38:58.839Z,82.30
2022-10-19T22:41:28.617Z,82.40
2022-10-19T22:43:55.627Z,82.60
2022-10-19T22:46:22.579Z,82.80
2022-10-19T22:48:49.549Z,82.90
2022-10-19T22:51:16.490Z,83.00
2022-10-19T22:53:43.479Z,83.40
2022-10-19T22:56:13.747Z,83.80
2022-10-19T22:58:40.792Z,84.10
2022-10-19T23:01:10.705Z,84.60
2022-10-19T23:03:40.294Z,85.00
2022-10-19T23:06:12.125Z,85.00
2022-10-19T23:08:39.331Z,85.10
2022-10-19T23:11:06.444Z,85.10
2022-10-19T23:13:33.417Z,85.00
2022-10-19T23:16:00.553Z,85.00
2022-10-19T23:18:31.247Z,85.10
2022-10-19T23:21:01.297Z,85.10
2022-10-19T23:23:29.693Z,85.10
2022-10-19T23:26:02.379Z,85.10
2022-10-19T23:28:30.289Z,85.20
2022-10-19T23:30:59.375Z,85.30
2022-10-19T23:33:26.486Z,85.20
2022-10-19T23:35:53.476Z,85.10
2022-10-19T23:38:20.422Z,85.30
2022-10-19T23:40:47.437Z,85.50
2022-10-19T23:43:14.416Z,85.60
2022-10-19T23:45:41.434Z,85.70
2022-10-19T23:48:08.389Z,85.70
2022-10-19T23:50:35.342Z,85.90
2022-10-19T23:53:02.405Z,86.20
2022-10-19T23:55:29.396Z,86.20
2022-10-19T23:57:56.361Z,85.90
